Time;durP1;ratioP1;P1;durP2;ratioP2;P2;SDS_P1;SDS_P2;PMS_P1;PMS_P2;Temp;Humidity;BMP_temperature;BMP_pressure;BME280_temperature;BME280_humidity;BME280_pressure;Samples;Min_cycle;Max_cycle;Signal;HPM_P1;HPM_P2
2023/02/23 00:00:32;;;;;;;22.55;11.05;;;6.10;99.90;;;;;;5055319;28;20491;-61
2023/02/23 00:03:00;;;;;;;19.37;10.37;;;6.10;99.90;;;;;;5055151;28;20216;-61
2023/02/23 00:05:29;;;;;;;19.50;11.33;;;6.20;99.90;;;;;;5055400;28;20534;-60
2023/02/23 00:07:56;;;;;;;16.30;11.47;;;6.20;99.90;;;;;;5055400;28;20494;-61
2023/02/23 00:10:29;;;;;;;19.30;11.47;;;6.20;99.90;;;;;;5055142;28;20792;-60
2023/02/23 00:12:56;;;;;;;19.57;9.20;;;6.30;99.90;;;;;;5054376;28;20487;-60
2023/02/23 00:15:25;;;;;;;20.80;10.60;;;6.30;99.90;;;;;;5054410;28;20459;-61
2023/02/23 00:17:54;;;;;;;17.40;10.57;;;6.30;99.90;;;;;;5055314;28;20505;-61
2023/02/23 00:20:25;;;;;;;15.30;10.20;;;6.30;99.90;;;;;;5054927;28;20498;-61
2023/02/23 00:22:53;;;;;;;16.67;10.10;;;6.30;99.90;;;;;;5054823;28;20497;-61
2023/02/23 00:25:21;;;;;;;18.43;10.23;;;6.20;99.90;;;;;;5054696;28;20490;-61
2023/02/23 00:27:48;;;;;;;22.15;11.25;;;6.30;99.90;;;;;;5054685;28;20814;-61
2023/02/23 00:30:16;;;;;;;28.67;10.63;;;6.20;99.90;;;;;;5054887;28;20648;-61
2023/02/23 00:32:43;;;;;;;17.47;11.20;;;6.20;99.90;;;;;;5054587;28;20564;-62
2023/02/23 00:35:16;;;;;;;18.65;11.38;;;6.20;99.90;;;;;;5054639;28;20458;-60
2023/02/23 00:37:44;;;;;;;20.35;11.30;;;6.20;99.90;;;;;;5054562;28;20194;-61
2023/02/23 00:40:15;;;;;;;23.90;11.70;;;6.10;99.90;;;;;;5054683;28;20202;-61
2023/02/23 00:42:42;;;;;;;18.55;11.57;;;6.10;99.90;;;;;;5054623;28;20486;-60
2023/02/23 00:45:13;;;;;;;19.60;11.55;;;6.00;99.90;;;;;;5054556;28;20228;-60
2023/02/23 00:47:43;;;;;;;28.50;12.55;;;5.90;99.90;;;;;;5054538;28;20200;-60
2023/02/23 00:50:14;;;;;;;21.52;11.32;;;5.90;99.90;;;;;;5054283;28;20196;-61
2023/02/23 00:52:43;;;;;;;25.08;12.10;;;5.90;99.90;;;;;;5054225;28;20207;-61
2023/02/23 00:55:11;;;;;;;19.00;11.70;;;5.90;99.90;;;;;;5054423;28;20292;-61
2023/02/23 00:57:40;;;;;;;18.05;10.90;;;5.80;99.90;;;;;;5054225;28;20512;-61
2023/02/23 01:00:18;;;;;;;21.67;10.82;;;5.80;99.90;;;;;;5054444;28;20564;-61
2023/02/23 01:02:46;;;;;;;19.70;11.55;;;5.80;99.90;;;;;;5054217;28;20598;-61
2023/02/23 01:05:15;;;;;;;23.23;11.63;;;5.90;99.90;;;;;;5053866;28;20597;-61
2023/02/23 01:07:45;;;;;;;20.48;11.65;;;5.80;99.90;;;;;;5054275;28;20193;-61
2023/02/23 01:10:19;;;;;;;20.95;12.18;;;5.80;99.90;;;;;;5053896;28;20195;-61
2023/02/23 01:12:48;;;;;;;26.93;12.60;;;5.70;99.90;;;;;;5053827;28;20266;-61
2023/02/23 01:15:15;;;;;;;19.90;11.65;;;5.70;99.90;;;;;;5053969;28;20874;-61
2023/02/23 01:17:42;;;;;;;21.30;11.65;;;5.80;99.90;;;;;;5053740;28;20648;-61
2023/02/23 01:20:16;;;;;;;26.87;11.20;;;5.70;99.90;;;;;;5054006;28;20193;-61
2023/02/23 01:22:47;;;;;;;20.52;11.55;;;5.60;99.90;;;;;;5053591;28;20445;-60
2023/02/23 01:25:15;;;;;;;19.92;12.50;;;5.60;99.90;;;;;;5052796;28;20710;-60
2023/02/23 01:27:43;;;;;;;26.02;11.65;;;5.50;99.90;;;;;;5053693;28;20290;-62
2023/02/23 01:30:11;;;;;;;20.58;12.23;;;5.50;99.90;;;;;;5053592;28;20558;-62
2023/02/23 01:32:41;;;;;;;22.43;12.80;;;5.60;99.90;;;;;;5054171;28;20329;-63
2023/02/23 01:35:09;;;;;;;26.42;13.23;;;5.60;99.90;;;;;;5053750;28;21013;-60
2023/02/23 01:37:39;;;;;;;20.55;11.73;;;5.50;99.90;;;;;;5053518;28;20201;-60
2023/02/23 01:40:13;;;;;;;31.23;12.50;;;5.50;99.90;;;;;;5053880;28;20219;-59
2023/02/23 01:42:41;;;;;;;17.63;12.13;;;5.50;99.90;;;;;;5053587;28;20462;-61
2023/02/23 01:45:22;;;;;;;17.42;12.52;;;5.50;99.90;;;;;;5053214;28;20221;-61
2023/02/23 01:47:49;;;;;;;23.05;12.80;;;5.40;99.90;;;;;;5053520;28;20192;-61
2023/02/23 01:50:18;;;;;;;20.92;12.20;;;5.50;99.90;;;;;;5053411;28;20197;-61
2023/02/23 01:52:47;;;;;;;30.63;14.20;;;5.50;99.90;;;;;;5053308;28;20198;-61
2023/02/23 01:55:22;;;;;;;24.08;12.10;;;5.60;99.90;;;;;;5053105;28;20191;-61
2023/02/23 01:57:52;;;;;;;34.15;13.98;;;5.50;99.90;;;;;;5053568;28;20195;-61
2023/02/23 02:00:19;;;;;;;25.02;15.02;;;5.60;99.90;;;;;;5053204;28;20197;-61
2023/02/23 02:02:47;;;;;;;27.38;15.13;;;5.50;99.90;;;;;;5053059;28;20255;-61
2023/02/23 02:05:16;;;;;;;18.95;12.25;;;5.40;99.90;;;;;;5052848;28;20723;-62
2023/02/23 02:07:48;;;;;;;19.90;12.57;;;5.40;99.90;;;;;;5052904;28;20193;-62
2023/02/23 02:10:39;;;;;;;20.58;13.05;;;5.40;99.90;;;;;;5053000;28;20946;-60
2023/02/23 02:13:09;;;;;;;29.83;14.23;;;5.40;99.90;;;;;;5052837;28;20221;-60
2023/02/23 02:15:40;;;;;;;25.63;12.57;;;5.40;99.90;;;;;;5053061;28;20192;-61
2023/02/23 02:18:17;;;;;;;22.85;12.45;;;5.30;99.90;;;;;;5052993;28;20197;-61
2023/02/23 02:21:14;;;;;;;25.38;12.20;;;5.30;99.90;;;;;;5052902;28;20193;-61
2023/02/23 02:24:26;;;;;;;24.55;14.02;;;5.30;99.90;;;;;;5052776;28;20219;-61
2023/02/23 02:27:06;;;;;;;23.02;13.15;;;5.30;99.90;;;;;;5052795;28;20243;-61
2023/02/23 02:30:12;;;;;;;25.25;12.10;;;5.30;99.90;;;;;;5052812;28;20196;-61
2023/02/23 02:33:18;;;;;;;19.92;12.75;;;5.30;99.90;;;;;;5052671;28;20200;-61
2023/02/23 02:36:16;;;;;;;24.33;13.32;;;5.20;99.90;;;;;;5032020;28;20563;-61
2023/02/23 02:38:52;;;;;;;25.92;12.38;;;5.10;99.90;;;;;;5034192;28;20193;-61
2023/02/23 02:41:27;;;;;;;21.65;13.38;;;5.10;99.90;;;;;;5057048;28;20271;-61
2023/02/23 02:44:00;;;;;;;22.90;12.20;;;5.10;99.90;;;;;;5056984;28;20220;-61
2023/02/23 02:46:30;;;;;;;28.00;13.10;;;5.10;99.90;;;;;;5056998;28;20470;-61
2023/02/23 02:49:02;;;;;;;24.60;13.20;;;5.20;99.90;;;;;;5056667;28;20199;-61
2023/02/23 02:51:36;;;;;;;25.55;14.77;;;5.20;99.90;;;;;;5056571;28;20224;-61
2023/02/23 02:54:09;;;;;;;23.48;12.95;;;5.20;99.90;;;;;;5056982;28;20205;-61
2023/02/23 02:56:40;;;;;;;22.67;12.60;;;5.20;99.90;;;;;;5056844;28;20553;-61
2023/02/23 04:18:11;;;;;;;26.65;14.30;;;4.90;99.90;;;;;;5055165;28;20279;-61
2023/02/23 04:20:38;;;;;;;27.80;13.77;;;4.90;99.90;;;;;;5055245;28;20197;-61
2023/02/23 04:23:05;;;;;;;27.63;14.02;;;4.90;99.90;;;;;;5054894;28;20215;-61
2023/02/23 04:25:31;;;;;;;28.25;14.80;;;4.90;99.90;;;;;;5054716;28;20259;-61
2023/02/23 04:27:58;;;;;;;21.83;12.85;;;4.90;99.90;;;;;;5055067;28;20188;-61
2023/02/23 04:30:27;;;;;;;26.75;14.05;;;4.80;99.90;;;;;;5054871;28;20250;-61
2023/02/23 04:32:54;;;;;;;29.88;14.48;;;4.70;99.90;;;;;;5054938;28;20192;-60
2023/02/23 04:35:22;;;;;;;26.60;13.75;;;4.80;99.90;;;;;;5054577;28;20209;-61
2023/02/23 04:37:49;;;;;;;39.20;15.18;;;4.80;99.90;;;;;;5054680;28;20241;-60
2023/02/23 04:40:16;;;;;;;21.40;14.25;;;4.90;99.90;;;;;;5054917;28;20246;-60
2023/02/23 04:42:43;;;;;;;30.70;13.55;;;4.90;99.90;;;;;;5054718;28;20220;-60
2023/02/23 04:45:10;;;;;;;25.20;13.70;;;5.00;99.90;;;;;;5054395;28;20216;-60
2023/02/23 04:47:37;;;;;;;24.05;13.85;;;5.00;99.90;;;;;;5054629;28;20192;-60
2023/02/23 04:50:05;;;;;;;24.55;13.27;;;5.00;99.90;;;;;;5054598;28;20240;-63
2023/02/23 04:52:36;;;;;;;21.48;13.35;;;5.00;99.90;;;;;;5054454;28;20188;-60
2023/02/23 04:55:03;;;;;;;23.55;12.80;;;5.00;99.90;;;;;;5054669;28;20196;-60
2023/02/23 04:57:30;;;;;;;26.42;14.15;;;5.00;99.90;;;;;;5054441;28;20199;-60
2023/02/23 04:59:57;;;;;;;23.00;14.20;;;4.90;99.90;;;;;;5054188;28;20197;-60
2023/02/23 05:02:24;;;;;;;29.58;14.00;;;4.90;99.90;;;;;;5053954;28;20196;-60
2023/02/23 05:04:51;;;;;;;27.45;13.40;;;4.80;99.90;;;;;;5054004;28;20687;-60
2023/02/23 05:07:18;;;;;;;23.85;12.40;;;4.80;99.90;;;;;;5054247;28;20530;-61
2023/02/23 05:09:46;;;;;;;20.50;12.52;;;4.80;99.90;;;;;;5054082;28;20602;-61
2023/02/23 05:12:13;;;;;;;26.15;13.65;;;4.70;99.90;;;;;;5053817;28;20225;-60
2023/02/23 05:14:39;;;;;;;25.15;12.45;;;4.60;99.90;;;;;;5053999;28;20288;-61
2023/02/23 05:17:07;;;;;;;21.20;14.10;;;4.60;99.90;;;;;;5053930;28;20257;-60
2023/02/23 05:19:34;;;;;;;21.20;12.35;;;4.60;99.90;;;;;;5053655;28;20199;-60
2023/02/23 05:22:00;;;;;;;22.30;11.93;;;4.50;99.90;;;;;;5053645;28;20192;-62
2023/02/23 05:24:30;;;;;;;20.85;12.45;;;4.40;99.90;;;;;;5053800;28;20302;-61
2023/02/23 05:26:59;;;;;;;21.80;13.25;;;4.40;99.90;;;;;;5053498;28;20192;-61
2023/02/23 05:29:25;;;;;;;22.73;13.80;;;4.40;99.90;;;;;;5053718;28;20544;-61
2023/02/23 05:31:52;;;;;;;25.77;12.40;;;4.40;99.90;;;;;;5053538;28;20187;-61
2023/02/23 05:34:19;;;;;;;23.40;12.95;;;4.30;99.90;;;;;;5053937;28;20210;-61
2023/02/23 05:36:46;;;;;;;20.92;12.70;;;4.30;99.90;;;;;;5053443;28;20246;-61
2023/02/23 05:39:12;;;;;;;25.33;14.68;;;4.30;99.90;;;;;;5053365;28;20192;-61
2023/02/23 05:41:40;;;;;;;24.08;13.40;;;4.20;99.90;;;;;;5053641;28;20200;-62
2023/02/23 05:44:08;;;;;;;21.05;12.15;;;4.30;99.90;;;;;;5053281;28;20247;-61
2023/02/23 05:46:34;;;;;;;29.13;14.50;;;4.40;99.90;;;;;;5053223;28;20584;-61
2023/02/23 05:49:02;;;;;;;25.45;13.18;;;4.50;99.90;;;;;;5053697;28;20273;-61
2023/02/23 05:51:30;;;;;;;20.38;13.20;;;4.60;99.90;;;;;;5053552;28;20195;-62
2023/02/23 05:53:57;;;;;;;21.33;11.90;;;4.70;99.90;;;;;;5053244;28;20192;-61
2023/02/23 05:56:24;;;;;;;19.90;12.57;;;4.70;99.90;;;;;;5053085;28;20447;-60
2023/02/23 05:58:52;;;;;;;22.95;13.35;;;4.70;99.90;;;;;;5053092;28;20192;-61
2023/02/23 06:01:22;;;;;;;25.00;14.48;;;4.70;99.90;;;;;;5053024;28;20198;-61
2023/02/23 06:03:49;;;;;;;28.98;14.10;;;4.70;99.90;;;;;;5053141;28;20196;-60
2023/02/23 06:06:16;;;;;;;27.75;12.70;;;4.70;99.90;;;;;;5053208;28;20202;-60
2023/02/23 06:08:43;;;;;;;23.50;13.93;;;4.60;99.90;;;;;;5053116;28;20200;-60
2023/02/23 06:11:10;;;;;;;24.00;12.65;;;4.60;99.90;;;;;;5052401;28;20195;-61
2023/02/23 06:13:37;;;;;;;27.15;13.02;;;4.60;99.90;;;;;;5053396;28;20643;-61
2023/02/23 06:16:04;;;;;;;26.20;13.10;;;4.60;99.90;;;;;;5053029;28;20203;-60
2023/02/23 06:18:33;;;;;;;22.20;13.25;;;4.60;99.90;;;;;;5052945;28;20305;-61
2023/02/23 06:21:02;;;;;;;22.42;13.75;;;4.50;99.90;;;;;;5052823;28;20192;-60
2023/02/23 06:23:30;;;;;;;22.67;13.10;;;4.40;99.90;;;;;;5052649;28;20199;-61
2023/02/23 06:25:58;;;;;;;23.42;13.27;;;4.50;99.90;;;;;;5052552;28;20212;-61
2023/02/23 06:28:25;;;;;;;22.27;13.55;;;4.50;99.90;;;;;;5052767;28;20271;-60
2023/02/23 06:30:52;;;;;;;27.58;16.00;;;4.60;99.90;;;;;;5052834;28;20227;-61
2023/02/23 06:33:19;;;;;;;20.40;12.45;;;4.60;99.90;;;;;;5052698;28;20191;-61
2023/02/23 06:35:47;;;;;;;24.23;13.05;;;4.70;99.90;;;;;;5052929;28;20195;-61
2023/02/23 06:38:14;;;;;;;32.13;13.73;;;4.70;99.90;;;;;;5052644;28;20192;-61
2023/02/23 06:40:41;;;;;;;23.08;13.30;;;4.60;99.90;;;;;;5052453;28;20197;-60
2023/02/23 06:43:08;;;;;;;24.92;13.50;;;4.70;99.90;;;;;;5052788;28;20200;-60
2023/02/23 06:45:35;;;;;;;26.17;13.52;;;4.70;99.90;;;;;;5052426;28;20315;-60
2023/02/23 06:48:01;;;;;;;25.67;14.00;;;4.80;99.90;;;;;;5052662;28;20385;-61
2023/02/23 06:50:28;;;;;;;18.75;12.77;;;4.80;99.90;;;;;;5052555;28;20254;-61
2023/02/23 06:52:57;;;;;;;22.63;14.25;;;4.80;99.90;;;;;;5052396;28;20189;-60
2023/02/23 06:55:24;;;;;;;23.20;14.75;;;4.90;99.90;;;;;;5052233;28;20235;-61
2023/02/23 06:57:53;;;;;;;31.38;14.55;;;4.80;99.90;;;;;;5052339;28;20714;-61
2023/02/23 07:00:20;;;;;;;27.65;15.98;;;4.80;99.90;;;;;;5052340;28;20234;-60
2023/02/23 07:02:46;;;;;;;24.67;14.02;;;4.90;99.90;;;;;;5052216;28;20193;-61
2023/02/23 07:05:13;;;;;;;27.00;14.68;;;4.90;99.90;;;;;;5052226;28;20212;-61
2023/02/23 07:07:40;;;;;;;26.17;13.93;;;5.00;99.90;;;;;;5052250;28;20192;-61
2023/02/23 07:10:09;;;;;;;31.10;16.23;;;4.90;99.90;;;;;;5052292;28;20612;-61
2023/02/23 07:12:36;;;;;;;26.77;14.95;;;5.00;99.90;;;;;;5052229;28;20274;-60
2023/02/23 07:15:02;;;;;;;23.95;14.82;;;5.00;99.90;;;;;;5052241;28;20195;-61
2023/02/23 07:17:29;;;;;;;25.30;14.65;;;5.00;99.90;;;;;;5052331;28;20231;-61
2023/02/23 07:19:56;;;;;;;23.55;14.13;;;5.10;99.90;;;;;;5052265;28;20508;-60
2023/02/23 07:22:26;;;;;;;20.08;12.18;;;5.20;99.90;;;;;;5052120;28;20542;-61
2023/02/23 07:24:53;;;;;;;23.38;14.02;;;5.20;99.90;;;;;;5055640;28;20255;-61
2023/02/23 07:27:20;;;;;;;26.27;14.68;;;5.20;99.90;;;;;;5055844;28;20205;-60
2023/02/23 07:29:47;;;;;;;23.27;13.30;;;5.20;99.90;;;;;;5055902;28;20623;-61
2023/02/23 07:32:14;;;;;;;26.70;15.30;;;5.30;99.90;;;;;;5055758;28;20279;-60
2023/02/23 07:34:40;;;;;;;24.45;13.50;;;5.30;99.90;;;;;;5055680;28;20200;-61
2023/02/23 07:37:07;;;;;;;23.15;14.85;;;5.20;99.90;;;;;;5055976;28;20230;-61
2023/02/23 07:39:33;;;;;;;23.90;13.70;;;5.30;99.90;;;;;;5055883;28;20243;-61
2023/02/23 07:42:00;;;;;;;23.38;14.15;;;5.30;99.90;;;;;;5055724;28;20277;-61
2023/02/23 07:44:28;;;;;;;19.92;13.52;;;5.30;99.90;;;;;;5055597;28;20251;-60
2023/02/23 07:46:55;;;;;;;17.98;12.90;;;5.30;99.90;;;;;;5055550;28;20188;-59
2023/02/23 07:49:21;;;;;;;21.10;13.07;;;5.30;99.90;;;;;;5055312;28;20193;-62
2023/02/23 07:51:48;;;;;;;26.52;15.02;;;5.30;99.90;;;;;;5055483;28;20203;-62
2023/02/23 07:54:15;;;;;;;29.73;13.85;;;5.30;99.90;;;;;;5055187;28;20361;-61
2023/02/23 07:56:41;;;;;;;28.38;16.00;;;5.10;99.90;;;;;;5055454;28;20290;-62
2023/02/23 07:59:08;;;;;;;24.23;14.85;;;5.10;99.90;;;;;;5055100;28;20188;-60
2023/02/23 08:01:35;;;;;;;22.30;14.07;;;5.20;99.90;;;;;;5055172;28;20614;-60
2023/02/23 08:04:02;;;;;;;26.98;14.45;;;5.30;99.90;;;;;;5054937;28;20497;-60
2023/02/23 08:06:30;;;;;;;30.60;15.65;;;5.40;99.90;;;;;;5055271;28;20297;-63
2023/02/23 08:08:58;;;;;;;23.17;15.18;;;5.50;99.90;;;;;;5055089;28;20199;-59
2023/02/23 08:11:27;;;;;;;22.30;13.77;;;5.50;99.90;;;;;;5054779;28;20255;-63
2023/02/23 08:13:55;;;;;;;23.85;13.95;;;5.60;99.90;;;;;;5055009;28;20193;-62
2023/02/23 08:16:21;;;;;;;24.85;14.02;;;5.60;99.90;;;;;;5054795;28;20569;-62
2023/02/23 08:18:49;;;;;;;23.42;15.30;;;5.70;99.90;;;;;;5054748;28;20279;-60
2023/02/23 08:21:16;;;;;;;25.67;13.73;;;5.70;99.90;;;;;;5054643;28;20661;-61
2023/02/23 08:23:43;;;;;;;25.70;16.50;;;5.70;99.90;;;;;;5054215;28;20226;-61
2023/02/23 08:26:10;;;;;;;26.73;15.38;;;5.60;99.90;;;;;;5056877;28;20829;-61
2023/02/23 08:28:37;;;;;;;23.50;13.23;;;5.70;99.90;;;;;;5054668;28;20740;-62
2023/02/23 08:31:08;;;;;;;24.65;14.65;;;5.70;99.90;;;;;;5055524;28;20455;-63
2023/02/23 08:33:36;;;;;;;30.63;16.52;;;5.80;99.90;;;;;;5074598;28;20224;-62
2023/02/23 08:36:04;;;;;;;24.10;14.33;;;5.80;99.90;;;;;;5074633;28;20192;-63
2023/02/23 08:38:31;;;;;;;27.77;14.82;;;5.80;99.90;;;;;;5074419;28;20461;-59
2023/02/23 08:41:00;;;;;;;22.30;14.65;;;6.00;99.90;;;;;;5074499;28;20287;-60
2023/02/23 08:43:26;;;;;;;25.27;15.50;;;6.20;99.90;;;;;;5074382;28;20195;-60
2023/02/23 08:45:53;;;;;;;23.23;14.20;;;6.30;99.90;;;;;;5074398;28;20474;-59
2023/02/23 08:48:23;;;;;;;24.33;14.30;;;6.40;99.90;;;;;;5074398;28;20456;-60
2023/02/23 08:50:50;;;;;;;19.07;13.53;;;6.40;99.90;;;;;;5074201;28;21011;-60
2023/02/23 08:53:18;;;;;;;25.80;13.57;;;6.50;99.90;;;;;;5073909;28;20942;-58
2023/02/23 08:55:45;;;;;;;23.07;14.20;;;6.70;99.90;;;;;;5074203;28;20548;-59
2023/02/23 08:58:11;;;;;;;21.20;13.70;;;6.80;99.90;;;;;;5073999;28;20458;-61
2023/02/23 09:00:38;;;;;;;21.77;12.90;;;6.90;99.90;;;;;;5074247;28;20545;-61
2023/02/23 09:03:06;;;;;;;17.47;13.53;;;6.90;99.90;;;;;;5073883;28;20954;-59
2023/02/23 09:05:36;;;;;;;22.10;11.70;;;7.00;99.90;;;;;;5073993;28;20482;-61
2023/02/23 09:08:03;;;;;;;26.77;15.97;;;7.10;99.90;;;;;;5073921;28;20455;-63
2023/02/23 09:10:31;;;;;;;15.30;12.07;;;7.00;99.90;;;;;;5073836;28;20486;-61
2023/02/23 09:12:57;;;;;;;21.50;13.17;;;7.00;99.90;;;;;;5073662;28;20479;-63
2023/02/23 09:15:24;;;;;;;20.00;14.37;;;7.20;99.90;;;;;;5073644;28;20858;-62
2023/02/23 09:17:50;;;;;;;24.77;14.17;;;7.40;99.90;;;;;;5053818;28;20476;-65
2023/02/23 09:20:17;;;;;;;19.90;13.20;;;7.50;99.90;;;;;;5053801;28;20537;-63
2023/02/23 09:22:47;;;;;;;24.70;12.93;;;7.60;99.90;;;;;;5053692;28;20487;-62
2023/02/23 09:25:17;;;;;;;27.20;14.20;;;7.70;99.90;;;;;;5053375;28;20613;-63
2023/02/23 09:27:44;;;;;;;21.97;13.70;;;7.80;99.90;;;;;;5053555;28;20532;-61
2023/02/23 09:30:16;;;;;;;26.20;14.47;;;7.90;99.90;;;;;;5053511;28;20539;-59
2023/02/23 09:32:44;;;;;;;26.93;13.87;;;8.00;99.90;;;;;;5053648;28;20447;-63
2023/02/23 09:35:11;;;;;;;20.17;14.07;;;8.10;99.90;;;;;;5053426;28;20456;-60
2023/02/23 09:37:37;;;;;;;20.30;13.20;;;8.20;99.90;;;;;;5053254;28;20449;-61
2023/02/23 09:40:05;;;;;;;20.80;12.63;;;8.30;99.90;;;;;;5053224;28;20575;-60
2023/02/23 09:42:41;;;;;;;18.73;12.83;;;8.30;99.90;;;;;;5053524;28;20519;-59
2023/02/23 09:45:18;;;;;;;22.20;12.50;;;8.50;99.90;;;;;;5053230;28;20479;-58
2023/02/23 09:47:56;;;;;;;15.90;11.73;;;8.60;99.90;;;;;;5052885;28;20505;-58
2023/02/23 09:50:26;;;;;;;20.27;12.63;;;8.80;99.90;;;;;;5053013;28;20541;-57
2023/02/23 09:52:58;;;;;;;31.43;19.50;;;8.90;99.90;;;;;;5053054;28;20891;-58
2023/02/23 09:55:26;;;;;;;28.90;16.60;;;8.90;99.90;;;;;;5053198;28;20914;-58
2023/02/23 09:57:56;;;;;;;23.87;14.90;;;9.00;99.90;;;;;;5053204;28;20453;-61
2023/02/23 10:00:27;;;;;;;19.33;13.87;;;9.20;99.90;;;;;;5052898;28;20449;-63
2023/02/23 10:03:09;;;;;;;19.50;12.93;;;9.30;99.90;;;;;;5052861;28;20809;-62
2023/02/23 10:05:42;;;;;;;21.97;13.10;;;9.40;99.90;;;;;;5052929;28;20820;-61
2023/02/23 10:08:20;;;;;;;19.37;12.87;;;9.50;99.90;;;;;;5052912;28;20449;-61
2023/02/23 10:10:49;;;;;;;21.13;14.03;;;9.50;99.90;;;;;;5052749;28;20488;-61
2023/02/23 10:13:23;;;;;;;19.40;12.93;;;9.60;99.90;;;;;;5052556;28;20572;-60
2023/02/23 10:15:56;;;;;;;21.50;12.87;;;9.70;99.90;;;;;;5052980;28;20971;-61
2023/02/23 10:18:34;;;;;;;23.85;15.60;;;9.90;99.90;;;;;;5051733;28;20447;-63
2023/02/23 10:21:05;;;;;;;26.40;16.33;;;9.80;99.90;;;;;;5052577;28;20732;-60
2023/02/23 10:23:35;;;;;;;22.13;13.90;;;9.80;99.90;;;;;;5052413;28;20540;-62
2023/02/23 10:26:03;;;;;;;20.80;13.30;;;9.90;99.90;;;;;;5052892;28;20477;-65
2023/02/23 10:28:34;;;;;;;16.60;13.10;;;10.00;99.90;;;;;;5052698;28;20484;-66
2023/02/23 10:31:04;;;;;;;19.50;12.63;;;10.00;99.90;;;;;;5052713;28;20456;-64
2023/02/23 10:33:35;;;;;;;19.50;13.23;;;10.10;99.90;;;;;;5052471;28;20547;-63
2023/02/23 10:36:12;;;;;;;21.47;14.00;;;10.20;99.90;;;;;;5052489;28;20531;-61
2023/02/23 10:38:39;;;;;;;20.93;14.23;;;10.20;99.90;;;;;;5052553;28;20452;-65
2023/02/23 10:41:06;;;;;;;21.37;14.80;;;10.20;99.90;;;;;;5052545;28;20448;-63
2023/02/23 10:43:33;;;;;;;26.57;15.57;;;10.40;99.90;;;;;;5052486;28;20539;-63
2023/02/23 10:45:59;;;;;;;20.23;14.37;;;10.40;99.90;;;;;;5052365;28;20563;-61
2023/02/23 10:48:33;;;;;;;22.57;14.70;;;10.50;99.90;;;;;;5052393;28;20869;-65
2023/02/23 10:51:03;;;;;;;25.13;15.60;;;10.50;99.90;;;;;;5052581;28;20457;-62
2023/02/23 10:53:34;;;;;;;20.50;14.93;;;10.40;99.90;;;;;;5062510;28;20441;-65
2023/02/23 10:56:04;;;;;;;20.43;14.37;;;10.30;99.90;;;;;;5072510;28;20447;-60
2023/02/23 10:58:39;;;;;;;23.27;13.23;;;10.40;99.90;;;;;;5075209;28;20498;-60
2023/02/23 11:01:06;;;;;;;27.93;15.30;;;10.60;99.90;;;;;;5076312;28;20539;-58
2023/02/23 11:03:38;;;;;;;26.30;15.50;;;10.70;99.90;;;;;;5076449;28;20850;-61
2023/02/23 11:06:05;;;;;;;21.47;14.87;;;10.80;99.90;;;;;;5076115;28;20544;-60
2023/02/23 11:08:33;;;;;;;21.60;15.20;;;10.80;99.90;;;;;;5076240;28;20543;-60
2023/02/23 11:11:20;;;;;;;18.33;15.10;;;10.80;99.90;;;;;;5075921;28;20479;-61
2023/02/23 11:13:48;;;;;;;19.50;15.20;;;10.90;99.90;;;;;;5075744;28;20914;-62
2023/02/23 11:16:16;;;;;;;27.42;18.00;;;11.00;99.90;;;;;;5075055;28;20453;-59
2023/02/23 11:18:53;;;;;;;22.37;15.07;;;11.10;99.90;;;;;;5075998;28;20555;-60
2023/02/23 11:21:24;;;;;;;21.83;14.83;;;11.30;99.90;;;;;;5075844;28;20458;-60
2023/02/23 11:23:53;;;;;;;23.02;17.75;;;11.40;99.90;;;;;;5074853;28;20481;-65
2023/02/23 11:26:27;;;;;;;21.23;16.13;;;11.50;99.90;;;;;;5075729;28;20309;-61
2023/02/23 11:28:56;;;;;;;22.17;14.70;;;11.60;99.90;;;;;;5075972;28;20447;-65
2023/02/23 11:31:30;;;;;;;22.17;16.20;;;11.70;99.90;;;;;;5075745;28;20536;-60
2023/02/23 11:33:59;;;;;;;22.13;16.03;;;11.80;99.90;;;;;;5075689;28;20981;-63
2023/02/23 11:36:29;;;;;;;31.00;16.60;;;11.80;99.90;;;;;;5075558;28;20857;-65
2023/02/23 11:39:15;;;;;;;24.63;17.57;;;11.90;99.90;;;;;;5075756;28;20455;-63
2023/02/23 11:41:42;;;;;;;27.05;19.65;;;12.00;99.90;;;;;;5074601;28;20559;-60
2023/02/23 11:44:20;;;;;;;20.80;16.40;;;12.10;99.90;;;;;;5075619;28;20534;-62
2023/02/23 11:46:47;;;;;;;25.20;17.73;;;12.30;99.90;;;;;;5075406;28;20563;-62
2023/02/23 11:49:20;;;;;;;27.37;18.40;;;12.30;99.90;;;;;;5075626;28;20535;-62
2023/02/23 11:51:49;;;;;;;22.57;16.33;;;12.40;99.90;;;;;;5075478;28;20456;-64
2023/02/23 11:54:22;;;;;;;25.90;17.83;;;12.40;99.90;;;;;;5075489;28;20452;-61
2023/02/23 11:56:51;;;;;;;21.00;15.90;;;12.50;99.90;;;;;;5075385;28;20451;-61
2023/02/23 11:59:20;;;;;;;24.20;16.20;;;12.50;99.90;;;;;;5075184;28;21002;-65
2023/02/23 12:01:50;;;;;;;25.03;17.33;;;12.50;99.90;;;;;;5075112;28;20535;-64
2023/02/23 12:04:28;;;;;;;23.20;17.00;;;12.60;99.90;;;;;;5075356;28;20873;-64
2023/02/23 12:07:17;;;;;;;24.92;17.33;;;12.60;99.90;;;;;;5074253;28;20458;-60
2023/02/23 12:09:47;;;;;;;25.30;17.00;;;12.60;99.90;;;;;;5074065;28;20281;-60
2023/02/23 12:12:17;;;;;;;24.07;16.50;;;12.80;99.90;;;;;;5074690;28;20464;-59
2023/02/23 12:14:50;;;;;;;23.70;18.23;;;12.90;99.90;;;;;;5074793;28;20450;-59
2023/02/23 12:17:23;;;;;;;25.43;16.50;;;12.80;99.90;;;;;;5074897;28;20534;-61
2023/02/23 12:19:56;;;;;;;20.83;16.43;;;12.90;99.90;;;;;;5074867;28;20447;-64
2023/02/23 12:22:28;;;;;;;22.93;17.10;;;12.90;99.90;;;;;;5074539;28;20546;-60
2023/02/23 12:25:01;;;;;;;29.90;18.67;;;13.00;99.90;;;;;;5074772;28;20447;-59
2023/02/23 12:27:32;;;;;;;26.27;16.70;;;13.00;99.90;;;;;;5074667;28;20482;-57
2023/02/23 12:30:05;;;;;;;21.37;17.37;;;13.00;99.90;;;;;;5074738;28;20456;-60
2023/02/23 12:32:44;;;;;;;21.67;17.20;;;13.00;99.90;;;;;;5074563;28;20455;-61
2023/02/23 12:35:18;;;;;;;22.13;16.73;;;13.00;99.90;;;;;;5074727;28;20528;-64
2023/02/23 12:37:50;;;;;;;25.53;18.70;;;13.10;99.90;;;;;;5074499;28;20892;-62
2023/02/23 12:40:21;;;;;;;31.80;18.60;;;13.10;99.90;;;;;;5074381;28;20487;-62
2023/02/23 12:42:57;;;;;;;26.90;18.80;;;13.00;99.90;;;;;;5074366;28;20965;-60
2023/02/23 12:45:30;;;;;;;26.13;18.60;;;13.00;99.90;;;;;;5074249;28;20874;-61
2023/02/23 12:48:08;;;;;;;26.10;18.53;;;12.90;99.90;;;;;;5074461;28;20788;-63
2023/02/23 12:50:42;;;;;;;23.80;18.17;;;13.00;99.90;;;;;;5074110;28;20552;-61
2023/02/23 12:53:17;;;;;;;27.30;19.37;;;13.00;99.90;;;;;;5074616;28;20448;-63
2023/02/23 12:55:54;;;;;;;27.37;17.53;;;13.20;99.90;;;;;;5074297;28;20485;-62
2023/02/23 12:58:27;;;;;;;27.97;18.70;;;13.30;99.90;;;;;;5074077;28;21060;-60
2023/02/23 13:00:59;;;;;;;25.33;19.60;;;13.30;99.90;;;;;;5074011;28;20483;-64
2023/02/23 13:03:54;;;;;;;27.33;18.10;;;13.40;99.90;;;;;;5073977;28;20456;-63
2023/02/23 13:06:34;;;;;;;23.43;17.93;;;13.40;99.90;;;;;;5073642;28;20483;-58
2023/02/23 13:09:13;;;;;;;23.53;18.10;;;13.40;99.90;;;;;;5074060;28;20451;-60
2023/02/23 13:11:53;;;;;;;26.90;19.10;;;13.40;99.90;;;;;;5073782;28;20472;-62
2023/02/23 13:14:28;;;;;;;25.50;19.20;;;13.40;99.90;;;;;;5073769;28;20450;-58
2023/02/23 13:17:01;;;;;;;23.83;17.63;;;13.40;99.90;;;;;;5073917;28;20453;-59
2023/02/23 13:19:33;;;;;;;23.87;18.57;;;13.40;99.90;;;;;;5073878;28;20466;-62
2023/02/23 13:22:16;;;;;;;22.90;17.83;;;13.40;99.90;;;;;;5073749;28;20907;-59
2023/02/23 13:24:48;;;;;;;25.57;20.93;;;13.40;99.90;;;;;;5073460;28;20547;-60
2023/02/23 13:27:19;;;;;;;22.40;18.27;;;13.30;99.90;;;;;;5073519;28;20480;-62
2023/02/23 13:29:48;;;;;;;29.20;19.13;;;13.20;99.90;;;;;;5073609;28;20541;-66
2023/02/23 13:32:17;;;;;;;26.27;19.07;;;13.30;99.90;;;;;;5073342;28;20867;-61
2023/02/23 13:34:51;;;;;;;21.00;18.00;;;13.20;99.90;;;;;;5073206;28;20448;-61
2023/02/23 13:37:22;;;;;;;25.57;18.77;;;13.30;99.90;;;;;;5073338;28;20486;-60
2023/02/23 13:40:02;;;;;;;25.60;17.77;;;13.20;99.90;;;;;;5073592;28;20539;-60
2023/02/23 13:42:43;;;;;;;24.53;18.00;;;13.20;99.90;;;;;;5073279;28;20451;-62
2023/02/23 13:45:31;;;;;;;28.20;18.20;;;13.30;99.90;;;;;;5073104;28;20461;-55
2023/02/23 13:48:06;;;;;;;26.47;18.53;;;13.30;99.90;;;;;;5073367;28;20474;-59
2023/02/23 13:50:46;;;;;;;26.50;18.60;;;13.40;99.90;;;;;;5073329;28;20452;-61
2023/02/23 13:53:35;;;;;;;25.13;20.20;;;13.30;99.90;;;;;;5073093;28;20803;-60
2023/02/23 13:56:07;;;;;;;23.63;18.03;;;13.30;99.90;;;;;;5072205;28;20464;-60
2023/02/23 13:58:34;;;;;;;29.13;18.57;;;13.20;99.90;;;;;;5072996;28;20458;-61
2023/02/23 14:01:08;;;;;;;26.00;19.00;;;13.20;99.90;;;;;;5072857;28;20935;-61
2023/02/23 14:03:45;;;;;;;27.43;18.30;;;13.10;99.90;;;;;;5072934;28;20892;-62
2023/02/23 14:06:15;;;;;;;26.97;16.87;;;12.90;99.90;;;;;;5072811;28;20862;-62
2023/02/23 14:08:45;;;;;;;27.30;18.80;;;12.90;99.90;;;;;;5072643;28;20486;-62